Time;durP1;ratioP1;P1;durP2;ratioP2;P2;SDS_P1;SDS_P2;PMS_P1;PMS_P2;Temp;Humidity;BMP_temperature;BMP_pressure;BME280_temperature;BME280_humidity;BME280_pressure;Samples;Min_cycle;Max_cycle;Signal;HPM_P1;HPM_P2
2022/08/02 00:02:20;;;;;;;4.00;1.60;;;;;;;15.49;56.78;101801.06;5038279;28;20029;-89
2022/08/02 00:04:46;;;;;;;4.75;1.75;;;;;;;15.46;57.64;101804.69;5007157;28;20480;-90
2022/08/02 00:07:13;;;;;;;7.72;1.88;;;;;;;15.47;57.38;101802.91;5020860;28;20041;-90
2022/08/02 00:09:39;;;;;;;4.10;1.75;;;;;;;15.43;57.64;101788.78;5018693;28;20430;-90
2022/08/02 00:12:05;;;;;;;3.88;1.92;;;;;;;15.51;57.99;101793.03;5027660;28;20098;-90
2022/08/02 00:14:30;;;;;;;4.50;1.80;;;;;;;15.47;57.58;101801.09;5022963;28;20099;-90
2022/08/02 00:16:56;;;;;;;7.30;1.95;;;;;;;15.48;57.68;101797.53;5053698;28;20091;-90
2022/08/02 00:19:21;;;;;;;4.60;1.77;;;;;;;15.45;57.70;101783.38;5038838;28;20029;-90
2022/08/02 00:21:47;;;;;;;5.03;2.10;;;;;;;15.48;58.27;101794.00;5014237;28;20520;-89
2022/08/02 00:24:13;;;;;;;8.10;2.00;;;;;;;15.49;58.59;101796.59;5028126;28;20107;-90
2022/08/02 00:26:38;;;;;;;5.22;2.10;;;;;;;15.48;58.64;101800.19;5047062;28;20060;-89
2022/08/02 00:29:04;;;;;;;5.53;1.80;;;;;;;15.44;58.93;101793.19;5034848;28;20112;-90
2022/08/02 00:31:29;;;;;;;7.82;1.80;;;;;;;15.45;58.80;101794.06;5029249;28;20028;-90
2022/08/02 00:33:55;;;;;;;5.03;1.90;;;;;;;15.48;59.14;101799.34;5018176;28;20040;-90
2022/08/02 00:36:21;;;;;;;5.38;2.03;;;;;;;15.44;59.05;101792.31;5010811;28;20111;-90
2022/08/02 00:38:47;;;;;;;6.30;1.98;;;;;;;15.44;58.11;101790.50;5003802;28;20041;-89
2022/08/02 00:41:18;;;;;;;6.07;2.22;;;;;;;15.46;57.79;101798.50;5032873;28;20063;-89
2022/08/02 00:43:45;;;;;;;6.88;2.00;;;;;;;15.40;58.56;101780.81;5033606;28;20132;-90
2022/08/02 00:46:11;;;;;;;4.43;2.20;;;;;;;15.44;58.24;101790.50;5036303;28;20021;-90
2022/08/02 00:48:36;;;;;;;6.35;1.88;;;;;;;15.44;58.75;101786.97;5039506;28;20041;-89
2022/08/02 00:51:02;;;;;;;6.57;2.20;;;;;;;15.37;58.66;101774.72;5021537;28;20495;-90
2022/08/02 00:53:28;;;;;;;6.25;2.05;;;;;;;15.39;58.19;101775.53;5041590;28;20098;-89
2022/08/02 00:55:53;;;;;;;5.20;2.20;;;;;;;15.37;58.51;101764.91;5033016;28;20037;-90
2022/08/02 00:58:19;;;;;;;5.30;2.08;;;;;;;15.39;58.44;101764.88;5032570;28;20017;-89
2022/08/02 01:00:45;;;;;;;4.85;2.38;;;;;;;15.35;58.09;101772.06;5028931;28;20063;-89
2022/08/02 01:03:10;;;;;;;5.53;2.35;;;;;;;15.37;57.95;101772.03;5003984;28;20060;-90
2022/08/02 01:05:36;;;;;;;4.88;2.20;;;;;;;15.34;57.40;101777.47;5032866;28;20426;-89
2022/08/02 01:08:02;;;;;;;5.55;2.50;;;;;;;15.28;57.74;101770.47;4996627;28;20033;-90
2022/08/02 01:10:28;;;;;;;6.20;2.35;;;;;;;15.33;58.03;101773.94;5010071;28;20417;-89
2022/08/02 01:12:53;;;;;;;7.10;2.47;;;;;;;15.31;57.93;101769.56;4999621;28;20099;-89
2022/08/02 01:15:20;;;;;;;4.78;2.28;;;;;;;15.32;57.90;101774.81;5041298;28;20356;-89
2022/08/02 01:17:55;;;;;;;9.50;2.28;;;;;;;15.34;57.94;101777.47;5038198;28;20029;-89
2022/08/02 01:20:36;;;;;;;5.82;2.35;;;;;;;15.33;57.78;101779.28;5027239;28;20037;-89
2022/08/02 01:23:13;;;;;;;9.82;2.40;;;;;;;15.34;57.84;101781.00;5015572;28;20029;-90
2022/08/02 01:25:54;;;;;;;7.72;2.58;;;;;;;15.25;58.13;101778.56;5015724;28;20454;-89
2022/08/02 01:28:25;;;;;;;6.60;2.40;;;;;;;15.25;58.20;101770.56;5018220;28;20117;-89
2022/08/02 01:31:06;;;;;;;5.50;2.38;;;;;;;15.27;57.80;101774.06;5026663;28;20128;-89
2022/08/02 01:33:43;;;;;;;5.30;2.47;;;;;;;15.26;58.59;101778.53;5032411;28;20046;-89
2022/08/02 01:36:11;;;;;;;5.32;2.13;;;;;;;15.26;58.76;101773.22;5038428;28;20029;-88
2022/08/02 01:38:47;;;;;;;5.25;2.33;;;;;;;15.22;58.46;101760.84;5046842;28;20061;-90
2022/08/02 01:41:18;;;;;;;6.88;2.45;;;;;;;15.24;58.83;101769.69;5015973;28;20091;-89
2022/08/02 01:43:48;;;;;;;6.97;2.30;;;;;;;15.18;59.28;101758.31;5016954;28;20034;-90
2022/08/02 01:46:16;;;;;;;7.28;2.60;;;;;;;15.14;59.41;101761.97;5037956;28;20036;-89
2022/08/02 01:48:44;;;;;;;6.78;2.80;;;;;;;15.13;59.55;101757.53;5046433;28;20125;-88
2022/08/02 01:51:13;;;;;;;6.38;2.83;;;;;;;15.13;59.26;101752.22;5027116;28;20028;-89
2022/08/02 01:53:42;;;;;;;5.28;2.58;;;;;;;15.08;59.99;101751.47;5037982;28;20035;-89
2022/08/02 01:56:10;;;;;;;6.25;2.92;;;;;;;15.01;60.16;101746.31;5031253;28;20141;-88
2022/08/02 01:58:38;;;;;;;5.65;2.60;;;;;;;14.97;60.13;101738.41;5032680;28;20041;-89
2022/08/02 02:01:06;;;;;;;6.68;2.90;;;;;;;14.97;60.78;101744.63;5027277;28;20029;-89
2022/08/02 02:03:34;;;;;;;6.78;2.63;;;;;;;15.01;60.36;101756.09;5017543;28;20029;-89
2022/08/02 02:06:04;;;;;;;9.02;2.72;;;;;;;14.97;60.71;101749.94;5045531;28;20432;-89
2022/08/02 02:08:41;;;;;;;8.10;2.70;;;;;;;14.92;60.24;101743.00;5016322;28;20151;-90
2022/08/02 02:11:07;;;;;;;12.68;2.97;;;;;;;14.90;60.69;101739.47;5039387;28;20530;-89
2022/08/02 02:13:36;;;;;;;9.52;2.95;;;;;;;14.89;61.38;101749.28;5053040;28;20021;-89
2022/08/02 02:24:29;;;;;;;5.93;2.33;;;;;;;14.83;60.49;101720.94;5032868;28;20504;-89
2022/08/02 02:27:32;;;;;;;8.82;2.53;;;;;;;14.82;61.46;101719.22;4986377;28;20050;-88
2022/08/02 02:30:29;;;;;;;12.02;2.80;;;;;;;14.82;60.95;101721.88;4981293;28;20042;-90
2022/08/02 02:32:59;;;;;;;6.13;2.40;;;;;;;14.76;60.90;101715.81;4973659;28;20026;-89
2022/08/02 02:35:31;;;;;;;7.53;2.70;;;;;;;14.72;61.72;101712.38;4964547;28;20058;-88
2022/08/02 02:38:01;;;;;;;7.97;2.42;;;;;;;14.72;62.30;101720.38;5009999;28;20111;-89
2022/08/02 02:40:28;;;;;;;9.10;3.03;;;;;;;14.68;62.00;101708.00;5041183;28;20396;-89
2022/08/02 02:42:55;;;;;;;10.52;2.58;;;;;;;14.70;61.85;101713.31;5035500;28;20211;-89
2022/08/02 02:45:22;;;;;;;8.18;3.35;;;;;;;14.68;61.59;101720.47;5010821;28;20033;-88
2022/08/02 02:47:49;;;;;;;12.20;3.13;;;;;;;14.66;61.69;101712.50;5024813;28;20029;-88
2022/08/02 02:50:16;;;;;;;5.55;2.45;;;;;;;14.65;62.14;101708.09;5025548;28;20408;-89
2022/08/02 02:52:43;;;;;;;6.88;2.63;;;;;;;14.64;61.96;101706.38;5055257;28;20472;-89
2022/08/02 02:55:09;;;;;;;5.53;2.90;;;;;;;14.60;62.46;101710.00;5050158;28;20009;-89
2022/08/02 02:57:37;;;;;;;7.10;2.90;;;;;;;14.59;62.98;101716.28;5035108;28;20033;-89
2022/08/02 03:00:08;;;;;;;7.95;2.67;;;;;;;14.55;62.17;101709.25;5035245;28;20029;-89
2022/08/02 03:02:36;;;;;;;13.95;3.28;;;;;;;14.54;62.94;101720.81;5036515;28;20120;-89
2022/08/02 03:05:03;;;;;;;7.95;2.70;;;;;;;14.48;63.47;101704.94;5017338;28;20033;-90
2022/08/02 03:07:28;;;;;;;7.40;2.67;;;;;;;14.42;62.84;101697.97;5043537;28;20048;-90
2022/08/02 03:09:54;;;;;;;7.50;2.67;;;;;;;14.45;64.19;101708.56;5025629;28;20033;-89
2022/08/02 03:12:21;;;;;;;8.18;3.38;;;;;;;14.43;63.64;101701.50;5042511;28;20036;-88
2022/08/02 03:14:47;;;;;;;5.35;2.55;;;;;;;14.42;64.04;101705.97;5037930;28;20016;-89
2022/08/02 03:17:13;;;;;;;6.80;3.00;;;;;;;14.41;63.24;101707.78;5023775;28;20041;-89
2022/08/02 03:19:38;;;;;;;5.45;2.80;;;;;;;14.43;62.97;101713.03;5027618;28;20072;-89
2022/08/02 03:22:04;;;;;;;5.65;2.88;;;;;;;14.44;64.25;101714.81;5032291;28;20041;-89
2022/08/02 03:24:29;;;;;;;11.57;2.92;;;;;;;14.43;64.28;101709.50;5026300;28;20043;-88
2022/08/02 03:26:55;;;;;;;9.38;3.67;;;;;;;14.41;64.20;101705.09;5039607;28;20354;-89
2022/08/02 03:29:20;;;;;;;9.38;2.58;;;;;;;14.36;64.79;101709.63;5017411;28;20112;-89
2022/08/02 03:31:46;;;;;;;14.18;3.10;;;;;;;14.45;63.97;101723.69;5046153;28;20045;-88
2022/08/02 03:34:12;;;;;;;7.43;3.00;;;;;;;14.41;64.70;101712.19;5034662;28;20124;-89
2022/08/02 03:36:39;;;;;;;8.48;3.20;;;;;;;14.35;65.09;101705.25;5033774;28;20033;-89
2022/08/02 03:39:06;;;;;;;8.15;3.10;;;;;;;14.34;65.03;101698.16;5033417;28;20477;-89
2022/08/02 03:41:32;;;;;;;7.78;3.28;;;;;;;14.33;65.47;101696.41;5017165;28;20028;-89
2022/08/02 03:43:59;;;;;;;11.65;3.42;;;;;;;14.30;66.30;101690.28;5033691;28;20041;-89
2022/08/02 03:46:25;;;;;;;11.00;3.80;;;;;;;14.23;66.24;101678.00;5004697;28;20064;-88
2022/08/02 03:48:51;;;;;;;9.45;3.00;;;;;;;14.24;65.90;101682.41;5045217;28;20045;-89
2022/08/02 03:51:19;;;;;;;8.25;3.05;;;;;;;14.24;66.26;101687.75;5034385;28;20056;-89
2022/08/02 03:53:46;;;;;;;8.30;3.13;;;;;;;14.20;65.87;101682.50;5024946;28;20465;-89
2022/08/02 03:56:12;;;;;;;9.60;3.53;;;;;;;14.16;66.58;101677.28;5006342;28;20044;-89
2022/08/02 03:58:37;;;;;;;9.70;3.30;;;;;;;14.16;66.27;101674.59;5017225;28;20094;-89
2022/08/02 04:01:03;;;;;;;7.50;3.22;;;;;;;14.19;66.79;101683.41;5000722;28;20041;-89
2022/08/02 04:03:29;;;;;;;8.40;3.10;;;;;;;14.15;66.56;101681.72;5012798;28;20042;-88
2022/08/02 04:05:55;;;;;;;7.03;3.00;;;;;;;14.20;65.77;101682.50;5006230;28;20038;-89
2022/08/02 04:08:20;;;;;;;9.88;3.60;;;;;;;14.23;66.36;101673.56;5032931;28;20120;-89
2022/08/02 04:13:32;;;;;;;6.97;3.03;;;;;;;14.24;66.32;101671.75;5024566;28;20038;-89
2022/08/02 04:16:14;;;;;;;6.85;2.97;;;;;;;14.29;65.50;101677.84;5036164;28;20064;-89
2022/08/02 04:18:49;;;;;;;7.80;3.35;;;;;;;14.28;66.11;101681.44;5012536;28;20100;-89
2022/08/02 04:21:16;;;;;;;8.57;3.38;;;;;;;14.30;65.93;101677.81;5032869;28;20037;-89
2022/08/02 04:23:44;;;;;;;7.38;3.53;;;;;;;14.29;67.14;101675.19;4997981;28;20034;-88
2022/08/02 04:26:11;;;;;;;10.15;3.80;;;;;;;14.33;67.11;101685.75;5033162;28;20516;-89
2022/08/02 04:28:37;;;;;;;7.32;3.28;;;;;;;14.30;66.43;101666.31;5032679;28;20045;-89
2022/08/02 04:31:04;;;;;;;10.32;3.65;;;;;;;14.36;66.22;101679.47;5015804;28;20057;-89
2022/08/02 04:33:30;;;;;;;9.70;3.88;;;;;;;14.34;66.43;101678.63;5004216;28;20072;-89
2022/08/02 04:35:57;;;;;;;10.30;3.80;;;;;;;14.34;67.10;101681.28;5020000;28;20069;-89
2022/08/02 04:38:24;;;;;;;7.85;3.60;;;;;;;14.37;67.16;101695.44;4986752;28;20029;-89
2022/08/02 04:40:51;;;;;;;6.05;3.00;;;;;;;14.34;66.10;101686.59;5028940;28;20064;-88
2022/08/02 04:43:17;;;;;;;7.85;3.10;;;;;;;14.37;66.78;101689.22;5015934;28;20025;-89
2022/08/02 04:45:44;;;;;;;11.48;3.40;;;;;;;14.37;66.49;101684.75;5043338;28;20480;-89
2022/08/02 04:48:10;;;;;;;10.25;3.60;;;;;;;14.38;67.65;101685.63;5020179;28;20100;-89
2022/08/02 04:50:35;;;;;;;11.20;3.50;;;;;;;14.36;65.74;101674.13;5022822;28;20596;-89
2022/08/02 04:53:01;;;;;;;7.32;2.95;;;;;;;14.39;66.69;101672.28;5024476;28;20112;-88
2022/08/02 04:55:29;;;;;;;10.10;3.58;;;;;;;14.39;67.47;101677.63;5012764;28;20034;-89
2022/08/02 04:57:59;;;;;;;9.18;3.70;;;;;;;14.32;68.14;101664.47;5009903;28;20029;-89
2022/08/02 05:00:26;;;;;;;11.68;3.55;;;;;;;14.32;68.32;101662.69;5038778;28;20043;-88
2022/08/02 05:02:51;;;;;;;6.63;3.58;;;;;;;14.33;68.15;101663.56;5036071;28;20378;-88
2022/08/02 05:05:17;;;;;;;8.45;3.78;;;;;;;14.43;68.38;101666.88;5038612;28;20036;-89
2022/08/02 05:07:43;;;;;;;14.00;4.80;;;;;;;14.46;67.56;101666.78;5025578;28;20370;-88
2022/08/02 05:10:09;;;;;;;12.77;4.00;;;;;;;14.46;67.79;101661.47;5006933;28;20119;-88
2022/08/02 05:12:37;;;;;;;9.82;3.80;;;;;;;14.52;68.19;101674.66;5008137;28;20049;-89
2022/08/02 05:15:04;;;;;;;11.82;4.25;;;;;;;14.53;68.21;101661.28;5021301;28;20116;-89
2022/08/02 05:17:29;;;;;;;9.95;4.15;;;;;;;14.63;68.45;101662.81;5015901;28;20053;-89
2022/08/02 05:19:55;;;;;;;16.02;4.43;;;;;;;14.68;68.26;101662.69;5016275;28;20025;-88
2022/08/02 05:22:20;;;;;;;9.52;3.78;;;;;;;14.73;67.82;101659.91;5050678;28;20495;-89
2022/08/02 05:24:46;;;;;;;10.85;4.45;;;;;;;14.86;68.54;101668.47;5010750;28;20041;-88
2022/08/02 05:27:11;;;;;;;9.40;4.72;;;;;;;14.94;67.88;101675.34;5011959;28;20382;-89
2022/08/02 05:29:37;;;;;;;28.63;5.80;;;;;;;15.00;67.78;101658.31;5015608;28;20067;-88
2022/08/02 05:32:03;;;;;;;9.82;4.63;;;;;;;15.08;67.45;101652.75;5012821;28;20038;-88
2022/08/02 05:34:28;;;;;;;24.25;5.88;;;;;;;15.15;68.08;101660.53;5016242;28;20040;-87
2022/08/02 05:36:54;;;;;;;16.75;6.00;;;;;;;15.22;68.29;101646.13;5029132;28;20037;-88
2022/08/02 05:39:19;;;;;;;33.42;6.60;;;;;;;15.31;68.29;101644.13;5037679;28;20060;-88
2022/08/02 05:41:45;;;;;;;34.55;6.05;;;;;;;15.35;68.36;101632.44;5052989;28;20427;-88
2022/08/02 05:44:10;;;;;;;21.35;5.40;;;;;;;15.48;68.16;101648.03;5020767;28;20029;-88
2022/08/02 05:46:36;;;;;;;23.30;5.72;;;;;;;15.58;67.90;101648.66;5016935;28;20037;-88
2022/08/02 05:49:03;;;;;;;22.48;6.32;;;;;;;15.61;68.84;101648.56;5051444;28;20025;-88
2022/08/02 05:51:37;;;;;;;26.35;5.88;;;;;;;15.77;67.08;101657.00;5037524;28;20127;-88
2022/08/02 05:54:22;;;;;;;27.42;6.43;;;;;;;15.88;66.90;101672.72;5040687;28;20471;-88
2022/08/02 05:56:59;;;;;;;17.10;5.60;;;;;;;15.99;68.21;101664.34;5028036;28;20033;-89
2022/08/02 05:59:32;;;;;;;8.65;5.30;;;;;;;16.15;68.90;101668.31;5013866;28;20033;-87
2022/08/02 06:02:02;;;;;;;30.75;6.88;;;;;;;16.35;68.88;101675.69;5018768;28;20423;-90
2022/08/02 06:05:02;;;;;;;17.17;5.90;;;;;;;16.52;67.86;101675.13;5042883;28;20115;-88
2022/08/02 06:07:28;;;;;;;13.57;6.05;;;;;;;16.60;68.65;101677.53;5042000;28;20044;-89
2022/08/02 06:09:55;;;;;;;13.10;5.78;;;;;;;16.64;67.38;101672.03;5007491;28;20029;-87
2022/08/02 06:12:27;;;;;;;13.75;5.68;;;;;;;16.71;68.44;101673.53;4999898;28;20037;-82
2022/08/02 06:14:53;;;;;;;14.32;6.32;;;;;;;16.79;68.64;101673.34;5040224;28;20025;-81
2022/08/02 06:17:19;;;;;;;20.08;6.47;;;;;;;16.88;68.90;101674.81;5050927;28;20484;-82
2022/08/02 06:19:46;;;;;;;13.63;5.95;;;;;;;16.95;68.99;101676.34;5044170;28;20072;-81
2022/08/02 06:22:15;;;;;;;14.50;6.28;;;;;;;17.00;68.74;101678.88;5025152;28;20434;-82
2022/08/02 06:24:44;;;;;;;15.70;6.55;;;;;;;17.08;68.61;101684.81;5027380;28;20021;-80
2022/08/02 06:27:14;;;;;;;15.50;6.70;;;;;;;17.17;69.35;101681.81;4999535;28;20451;-80
2022/08/02 06:29:42;;;;;;;15.23;6.57;;;;;;;17.19;68.61;101671.94;5023590;28;20045;-80
2022/08/02 06:32:08;;;;;;;15.88;6.35;;;;;;;17.29;69.02;101675.16;5011227;28;20128;-81
2022/08/02 06:34:38;;;;;;;13.32;6.15;;;;;;;17.42;68.56;101668.41;5020131;28;20419;-81
2022/08/02 06:37:23;;;;;;;14.85;6.78;;;;;;;17.59;68.79;101676.66;5023295;28;20196;-80
2022/08/02 06:39:57;;;;;;;14.52;7.10;;;;;;;17.73;67.31;101657.41;4987718;28;20080;-81
2022/08/02 06:42:44;;;;;;;12.90;6.70;;;;;;;17.86;67.02;101648.94;5021889;28;20053;-80
2022/08/02 06:45:09;;;;;;;10.15;6.10;;;;;;;18.02;69.10;101661.63;5020155;28;20022;-81
2022/08/02 06:47:35;;;;;;;11.00;6.97;;;;;;;18.17;69.50;101661.94;5030721;28;20110;-81
2022/08/02 06:50:00;;;;;;;11.15;6.70;;;;;;;18.30;69.05;101662.31;5027088;28;20100;-81
2022/08/02 06:52:29;;;;;;;22.23;7.07;;;;;;;18.48;68.71;101659.75;5030359;28;20033;-81
2022/08/02 06:54:57;;;;;;;12.02;6.90;;;;;;;18.65;68.66;101659.06;5012744;28;20426;-81
2022/08/02 06:57:22;;;;;;;14.80;6.97;;;;;;;18.80;68.79;101654.00;5030412;28;20424;-80
2022/08/02 06:59:48;;;;;;;14.55;7.53;;;;;;;18.90;69.17;101653.53;5012274;28;20082;-80
2022/08/02 07:02:13;;;;;;;14.20;6.60;;;;;;;19.05;68.46;101651.97;5030347;28;20049;-80
2022/08/02 07:04:39;;;;;;;13.05;7.20;;;;;;;19.20;69.17;101649.56;5030338;28;20033;-80
2022/08/02 07:07:04;;;;;;;12.35;7.10;;;;;;;19.35;67.46;101651.53;4996636;28;20042;-81
2022/08/02 07:09:30;;;;;;;12.88;6.82;;;;;;;19.51;67.95;101662.44;5002064;28;20095;-80
2022/08/02 07:11:55;;;;;;;18.15;7.82;;;;;;;19.63;68.21;101661.00;5027195;28;20059;-81
2022/08/02 07:14:20;;;;;;;13.15;7.60;;;;;;;19.73;67.54;101648.91;5029946;28;20499;-81
2022/08/02 07:16:46;;;;;;;12.23;7.80;;;;;;;19.86;68.02;101650.06;5030159;28;20041;-83
2022/08/02 07:19:11;;;;;;;15.68;8.50;;;;;;;19.98;67.79;101654.00;5030351;28;20037;-81
2022/08/02 07:21:37;;;;;;;16.70;8.35;;;;;;;20.03;67.92;101651.97;5012518;28;20099;-80
2022/08/02 07:24:03;;;;;;;17.77;8.45;;;;;;;20.06;67.75;101641.03;5027575;28;20068;-80
2022/08/02 07:26:28;;;;;;;29.30;9.88;;;;;;;20.13;67.41;101641.63;5006821;28;20077;-80
2022/08/02 07:28:54;;;;;;;13.60;8.40;;;;;;;20.15;67.33;101645.97;5018769;28;21117;-82
2022/08/02 07:31:19;;;;;;;14.32;7.55;;;;;;;20.12;67.47;101647.94;5024011;28;20018;-83
2022/08/02 07:33:45;;;;;;;13.00;7.75;;;;;;;20.12;67.06;101645.25;5028758;28;20081;-83
2022/08/02 07:36:10;;;;;;;14.15;7.93;;;;;;;20.17;68.30;101632.44;5035335;28;20071;-80
2022/08/02 07:38:36;;;;;;;13.30;7.70;;;;;;;20.31;67.65;101635.31;5025156;28;20370;-80
2022/08/02 07:41:01;;;;;;;15.88;9.15;;;;;;;20.39;67.14;101634.94;5030096;28;20118;-80
2022/08/02 07:43:27;;;;;;;11.02;6.90;;;;;;;20.57;66.73;101638.53;5025727;28;20065;-81
2022/08/02 07:45:52;;;;;;;14.77;7.05;;;;;;;20.77;66.58;101638.41;5018113;28;20471;-79
2022/08/02 07:48:18;;;;;;;12.73;6.82;;;;;;;20.94;67.02;101642.88;5022577;28;20120;-82
2022/08/02 07:50:45;;;;;;;12.93;6.57;;;;;;;21.16;65.81;101649.81;4975337;28;20037;-79
2022/08/02 07:53:11;;;;;;;17.17;7.50;;;;;;;21.27;64.64;101648.31;5006286;28;20083;-79
2022/08/02 07:55:36;;;;;;;15.63;6.30;;;;;;;21.40;64.98;101650.38;5033629;28;20064;-79
2022/08/02 07:58:03;;;;;;;9.82;6.35;;;;;;;21.48;64.42;101648.13;5027490;28;20113;-78
2022/08/02 08:00:29;;;;;;;11.25;6.53;;;;;;;21.54;63.81;101654.97;5032512;28;20107;-79
2022/08/02 08:02:54;;;;;;;8.70;5.30;;;;;;;21.60;62.83;101646.56;5032100;28;20037;-79
2022/08/02 08:05:20;;;;;;;9.57;5.63;;;;;;;21.72;63.02;101640.50;5032997;28;20107;-78
2022/08/02 08:07:45;;;;;;;7.32;4.78;;;;;;;21.88;62.99;101641.38;5026419;28;20029;-78
2022/08/02 08:10:11;;;;;;;9.10;4.30;;;;;;;22.01;63.01;101640.69;5032809;28;20505;-79
2022/08/02 08:12:37;;;;;;;6.30;3.50;;;;;;;22.12;61.54;101632.84;5028642;28;20041;-79
2022/08/02 08:15:03;;;;;;;13.80;3.83;;;;;;;22.23;61.22;101637.63;5030067;28;20037;-81
2022/08/02 08:17:28;;;;;;;6.35;3.80;;;;;;;22.23;60.43;101634.94;5033063;28;20097;-78
2022/08/02 08:19:54;;;;;;;5.97;3.35;;;;;;;22.22;60.58;101628.66;5033485;28;20017;-79
2022/08/02 08:22:19;;;;;;;5.55;2.88;;;;;;;22.26;60.88;101627.53;5032513;28;20037;-79
2022/08/02 08:24:45;;;;;;;8.95;3.20;;;;;;;22.24;60.76;101625.91;5046895;28;20124;-78
2022/08/02 08:27:13;;;;;;;3.80;2.63;;;;;;;22.40;61.55;101625.84;5033435;28;20445;-79
2022/08/02 08:29:41;;;;;;;3.25;2.15;;;;;;;22.54;59.08;101626.78;5033411;28;20060;-79
2022/08/02 08:32:07;;;;;;;3.50;2.00;;;;;;;22.67;57.40;101620.63;5033139;28;20037;-79
2022/08/02 08:34:33;;;;;;;5.57;2.10;;;;;;;22.75;57.03;101630.03;5030426;28;20034;-79
2022/08/02 08:36:59;;;;;;;4.15;2.30;;;;;;;22.90;57.48;101628.22;5028780;28;20077;-80
2022/08/02 08:39:25;;;;;;;4.75;2.58;;;;;;;23.06;56.25;101625.47;5042626;28;20040;-80
2022/08/02 08:41:50;;;;;;;9.95;2.63;;;;;;;23.03;55.77;101624.81;5027960;28;20488;-80
2022/08/02 08:44:15;;;;;;;3.92;2.20;;;;;;;22.98;54.97;101625.06;5025108;28;20489;-79
2022/08/02 08:46:42;;;;;;;9.63;2.20;;;;;;;23.08;55.66;101630.78;5047276;28;20072;-79
2022/08/02 08:49:17;;;;;;;5.75;2.00;;;;;;;23.24;55.04;101634.25;5031606;28;20041;-81
2022/08/02 08:51:43;;;;;;;2.80;1.90;;;;;;;23.25;52.66;101627.03;5028912;28;20029;-81
2022/08/02 08:54:15;;;;;;;3.72;2.33;;;;;;;23.27;53.29;101639.47;5023806;28;20041;-81
2022/08/02 08:56:41;;;;;;;5.65;2.17;;;;;;;23.28;52.64;101635.81;5033368;28;20079;-80
2022/08/02 08:59:07;;;;;;;2.38;1.73;;;;;;;23.29;52.93;101628.56;5031614;28;20026;-80
2022/08/02 09:01:33;;;;;;;4.70;1.73;;;;;;;23.42;52.82;101632.25;5027767;28;20072;-79
2022/08/02 09:03:59;;;;;;;2.65;1.70;;;;;;;23.45;51.47;101629.34;5023808;28;20056;-80
2022/08/02 09:06:24;;;;;;;4.22;1.90;;;;;;;23.45;51.18;101640.16;5045093;28;20041;-80
2022/08/02 09:08:50;;;;;;;2.78;1.70;;;;;;;23.45;49.89;101640.16;5031253;28;20509;-80
2022/08/02 09:11:18;;;;;;;9.07;2.10;;;;;;;23.37;48.29;101634.38;5031036;28;20045;-79
2022/08/02 09:13:51;;;;;;;1.90;1.42;;;;;;;23.35;47.94;101634.47;5030283;28;20021;-80
2022/08/02 09:16:26;;;;;;;2.88;1.63;;;;;;;23.40;47.76;101631.47;5032511;28;20090;-80
2022/08/02 09:18:52;;;;;;;3.95;2.00;;;;;;;23.52;47.34;101630.69;5032429;28;20041;-79
2022/08/02 09:21:17;;;;;;;9.57;1.95;;;;;;;23.70;47.54;101631.34;5030963;28;20037;-79
2022/08/02 09:23:50;;;;;;;4.00;2.03;;;;;;;23.88;47.03;101632.00;5031959;28;20045;-80
2022/08/02 09:26:21;;;;;;;3.80;1.75;;;;;;;23.98;46.20;101618.72;5030119;28;20462;-80
2022/08/02 09:28:49;;;;;;;6.63;1.90;;;;;;;24.08;46.75;101619.00;5031961;28;20056;-80
2022/08/02 09:31:20;;;;;;;3.78;1.92;;;;;;;24.20;46.58;101612.78;5032100;28;20220;-80
2022/08/02 09:33:51;;;;;;;4.03;1.95;;;;;;;24.31;46.75;101618.34;5032198;28;20038;-80
2022/08/02 09:36:17;;;;;;;3.65;2.17;;;;;;;24.38;47.04;101622.38;5021988;28;20033;-80
2022/08/02 09:38:56;;;;;;;2.38;1.63;;;;;;;24.46;46.17;101622.75;5040154;28;20469;-81
2022/08/02 09:41:30;;;;;;;3.88;1.70;;;;;;;24.41;45.82;101624.00;5020309;28;20030;-80
2022/08/02 09:43:58;;;;;;;3.50;1.75;;;;;;;24.53;44.10;101620.50;5031269;28;20136;-81
2022/08/02 09:46:26;;;;;;;2.35;1.67;;;;;;;24.65;42.90;101624.16;5024568;28;20037;-81
2022/08/02 09:48:57;;;;;;;1.95;1.38;;;;;;;24.71;43.50;101620.19;5033583;28;20029;-81
2022/08/02 09:51:34;;;;;;;3.83;1.65;;;;;;;24.86;42.53;101632.66;5042521;28;20099;-80
2022/08/02 09:54:06;;;;;;;3.95;1.30;;;;;;;24.95;41.70;101637.47;5043608;28;20028;-84
2022/08/02 09:56:55;;;;;;;3.10;1.90;;;;;;;24.96;42.01;101633.75;5030561;28;20103;-81
2022/08/02 09:59:23;;;;;;;6.47;1.50;;;;;;;25.06;42.42;101625.84;5010414;28;20404;-81
2022/08/02 10:01:50;;;;;;;2.97;1.40;;;;;;;25.03;41.22;101628.78;5024760;28;20041;-81
2022/08/02 10:04:19;;;;;;;3.63;1.60;;;;;;;25.15;41.06;101637.88;5031092;28;20048;-80
2022/08/02 10:06:45;;;;;;;3.72;1.38;;;;;;;25.16;40.47;101628.78;5031011;28;20017;-80
2022/08/02 10:09:12;;;;;;;2.13;1.30;;;;;;;25.23;40.19;101630.13;5041811;28;20124;-80
2022/08/02 10:11:38;;;;;;;6.10;1.58;;;;;;;25.33;38.86;101628.47;5028815;28;20130;-81
2022/08/02 10:14:08;;;;;;;5.20;1.52;;;;;;;25.37;38.58;101626.41;5031638;28;20037;-81
2022/08/02 10:16:38;;;;;;;6.43;1.80;;;;;;;25.52;39.70;101622.59;5045177;28;20113;-81
2022/08/02 10:19:05;;;;;;;3.63;1.58;;;;;;;25.76;39.86;101614.50;5027289;28;20432;-80
2022/08/02 10:21:51;;;;;;;2.83;1.73;;;;;;;25.92;39.86;101620.56;5030221;28;20033;-80
2022/08/02 10:24:23;;;;;;;6.25;1.50;;;;;;;26.08;38.99;101612.13;5030598;28;20128;-81
2022/08/02 10:26:49;;;;;;;1.98;1.50;;;;;;;26.18;37.99;101615.00;5026407;28;20080;-81
2022/08/02 10:29:17;;;;;;;5.47;1.30;;;;;;;26.28;38.39;101598.88;5029852;28;20037;-81
2022/08/02 10:32:03;;;;;;;2.95;1.50;;;;;;;26.34;37.96;101607.44;5027859;28;20025;-81
2022/08/02 10:35:09;;;;;;;2.85;1.42;;;;;;;26.38;36.24;101608.06;5030406;28;20022;-82
2022/08/02 10:37:38;;;;;;;1.35;1.13;;;;;;;26.21;36.72;101603.03;5016494;28;20517;-82
2022/08/02 10:40:05;;;;;;;6.05;1.85;;;;;;;26.12;36.51;101604.63;5031622;28;20033;-82
2022/08/02 10:42:43;;;;;;;4.47;1.25;;;;;;;26.13;37.58;101603.63;5024379;28;20045;-82
2022/08/02 10:45:10;;;;;;;3.08;1.63;;;;;;;26.15;38.14;101610.69;5029966;28;20045;-82
2022/08/02 10:47:36;;;;;;;2.33;1.30;;;;;;;26.05;37.09;101608.78;5029869;28;20488;-83
2022/08/02 10:50:03;;;;;;;4.32;1.50;;;;;;;26.03;36.86;101608.88;5013960;28;20033;-80
2022/08/02 10:52:30;;;;;;;2.20;1.27;;;;;;;26.20;38.57;101601.34;5027674;28;20120;-83
2022/08/02 10:55:08;;;;;;;2.88;1.27;;;;;;;26.22;35.71;101600.22;5025807;28;20375;-83
2022/08/02 10:57:35;;;;;;;3.40;1.50;;;;;;;26.31;35.25;101609.50;5037645;28;20481;-78
2022/08/02 11:00:00;;;;;;;6.53;1.23;;;;;;;26.40;35.24;101611.53;5031351;28;20555;-80
2022/08/02 11:02:43;;;;;;;5.97;1.17;;;;;;;26.46;35.75;101607.47;5029680;28;20251;-81
2022/08/02 11:05:17;;;;;;;4.38;1.30;;;;;;;26.46;34.94;101605.63;5021514;28;20034;-82
2022/08/02 11:07:48;;;;;;;3.05;1.23;;;;;;;26.59;35.14;101611.03;5016129;28;20473;-81
2022/08/02 11:10:23;;;;;;;4.80;1.10;;;;;;;26.72;34.79;101605.50;5033887;28;20075;-82
2022/08/02 11:13:02;;;;;;;1.92;1.02;;;;;;;26.90;33.82;101605.88;5048864;28;20083;-83
2022/08/02 11:15:28;;;;;;;5.55;1.20;;;;;;;27.03;35.00;101596.66;5026465;28;20060;-81
2022/08/02 11:18:00;;;;;;;3.13;1.10;;;;;;;27.13;33.64;101601.38;4996049;28;20374;-83
2022/08/02 11:20:28;;;;;;;1.85;1.05;;;;;;;27.14;34.33;101597.66;5033528;28;20084;-81
2022/08/02 11:22:55;;;;;;;8.48;1.23;;;;;;;27.34;33.78;101604.22;5026949;28;20042;-81
2022/08/02 11:25:20;;;;;;;3.35;1.10;;;;;;;27.45;34.08;101601.53;5027757;28;20046;-80
2022/08/02 11:27:46;;;;;;;3.22;1.00;;;;;;;27.52;33.15;101596.41;5039002;28;20345;-81
2022/08/02 11:30:12;;;;;;;4.00;1.13;;;;;;;27.54;32.88;101578.13;5044009;28;20045;-81
2022/08/02 11:32:38;;;;;;;2.17;1.20;;;;;;;27.52;33.47;101596.41;5033273;28;20079;-84
2022/08/02 11:35:04;;;;;;;4.40;1.40;;;;;;;27.47;34.59;101588.63;5026082;28;20034;-81
2022/08/02 11:37:33;;;;;;;3.38;1.38;;;;;;;27.32;33.24;101582.59;5016672;28;20099;-82
2022/08/02 11:39:58;;;;;;;7.10;1.90;;;;;;;27.19;33.48;101598.16;5033417;28;20025;-81